Herstmonceux, United Kingdom
Current Conditions -  °F | °C
As of 12:50 PM on Friday 19 Dec 2014 (Local Time) from EGKA Reporting Station
Few Clouds Few Clouds  
Wind Chill: 50°   Ceiling: Unl
Heat Index: 50°   Visibility: 6mi
Dew Point: 41°   Wind: 14mph
Humidity: 71%   Direction: 300°WNW
Pressure: 30.03"   Gusts: NA
Location:  50.89°N, 0.32°E
Report Text: EGKA 191250Z 30012KT 9999 FEW022 10/05 Q1017
Loading
Personal Weather Stations






























Interactive Weather Map New forecast layout! Learn more

10-Day Weather Forecast

Advertisements
Track Severe Weather on mobile